createdAt,value
2023-01-21T00:00:57.515Z,-1.13
2023-01-21T00:01:59.138Z,-1.12
2023-01-21T00:03:00.667Z,-1.11
2023-01-21T00:04:02.188Z,-1.19
2023-01-21T00:05:03.806Z,-1.20
2023-01-21T00:06:05.667Z,-1.22
2023-01-21T00:07:07.554Z,-1.30
2023-01-21T00:08:09.120Z,-1.31
2023-01-21T00:09:10.671Z,-1.29
2023-01-21T00:10:12.206Z,-1.30
2023-01-21T00:11:15.426Z,-1.28
2023-01-21T00:12:16.963Z,-1.22
2023-01-21T00:13:18.592Z,-1.20
2023-01-21T00:14:20.285Z,-1.24
2023-01-21T00:15:21.801Z,-1.26
2023-01-21T00:16:23.278Z,-1.23
2023-01-21T00:17:24.744Z,-1.30
2023-01-21T00:18:26.235Z,-1.27
2023-01-21T00:19:27.723Z,-1.23
2023-01-21T00:20:29.255Z,-1.29
2023-01-21T00:21:30.814Z,-1.29
2023-01-21T00:22:33.136Z,-1.26
2023-01-21T00:23:34.666Z,-1.20
2023-01-21T00:24:36.151Z,-1.19
2023-01-21T00:25:37.762Z,-1.14
2023-01-21T00:26:39.244Z,-1.18
2023-01-21T00:27:41.115Z,-1.21
2023-01-21T00:28:42.652Z,-1.21
2023-01-21T00:29:44.205Z,-1.22
2023-01-21T00:30:45.864Z,-1.27
2023-01-21T00:31:47.857Z,-1.31
2023-01-21T00:32:49.362Z,-1.34
2023-01-21T00:33:50.925Z,-1.38
2023-01-21T00:34:52.399Z,-1.36
2023-01-21T00:36:11.798Z,-1.37
2023-01-21T00:37:13.308Z,-1.35
2023-01-21T00:38:14.804Z,-1.37
2023-01-21T00:39:16.296Z,-1.32
2023-01-21T00:40:18.325Z,-1.32
2023-01-21T00:41:19.956Z,-1.43
2023-01-21T00:42:21.492Z,-1.50
2023-01-21T00:43:22.992Z,-1.45
2023-01-21T00:44:24.542Z,-1.39
2023-01-21T00:45:26.041Z,-1.42
2023-01-21T00:46:27.752Z,-1.39
2023-01-21T00:47:29.283Z,-1.49
2023-01-21T00:48:31.319Z,-1.47
2023-01-21T00:49:33.379Z,-1.48
2023-01-21T00:50:35.069Z,-1.52
2023-01-21T00:51:36.629Z,-1.51
2023-01-21T00:52:38.171Z,-1.50
2023-01-21T00:53:40.501Z,-1.50
2023-01-21T00:54:42.061Z,-1.50
2023-01-21T00:55:43.896Z,-1.52
2023-01-21T00:56:45.498Z,-1.59
2023-01-21T00:57:47.074Z,-1.59
2023-01-21T00:58:48.709Z,-1.62
2023-01-21T00:59:50.356Z,-1.60
2023-01-21T01:01:00.460Z,-1.56
2023-01-21T01:02:01.976Z,-1.47
2023-01-21T01:03:03.507Z,-1.47
2023-01-21T01:04:05.962Z,-1.44
2023-01-21T01:05:07.821Z,-1.44
2023-01-21T01:06:20.667Z,-1.44
2023-01-21T01:07:22.215Z,-1.51
2023-01-21T01:08:23.716Z,-1.49
2023-01-21T01:09:25.257Z,-1.51
2023-01-21T01:10:26.809Z,-1.48
2023-01-21T01:11:28.705Z,-1.42
2023-01-21T01:12:30.199Z,-1.44
2023-01-21T01:13:34.276Z,-1.43
2023-01-21T01:14:35.937Z,-1.47
2023-01-21T01:15:37.500Z,-1.53
2023-01-21T01:16:39.018Z,-1.49
2023-01-21T01:17:40.536Z,-1.44
2023-01-21T01:18:42.663Z,-1.43
2023-01-21T01:19:44.191Z,-1.45
2023-01-21T01:20:45.693Z,-1.48
2023-01-21T01:21:47.310Z,-1.43
2023-01-21T01:22:48.827Z,-1.44
2023-01-21T01:23:50.923Z,-1.45
2023-01-21T01:24:52.552Z,-1.48
2023-01-21T01:25:59.747Z,-1.44
2023-01-21T01:27:01.224Z,-1.45
2023-01-21T01:28:03.958Z,-1.38
2023-01-21T01:29:05.569Z,-1.40
2023-01-21T01:30:09.122Z,-1.39
2023-01-21T01:31:13.679Z,-1.47
2023-01-21T01:32:15.319Z,-1.48
2023-01-21T01:33:16.964Z,-1.48
2023-01-21T01:34:18.456Z,-1.47
2023-01-21T01:35:19.957Z,-1.48
2023-01-21T01:36:22.762Z,-1.51
2023-01-21T01:37:24.280Z,-1.53
2023-01-21T01:38:25.867Z,-1.50
2023-01-21T01:39:27.355Z,-1.51
2023-01-21T01:40:32.805Z,-1.47
2023-01-21T01:41:34.440Z,-1.59
2023-01-21T01:42:36.081Z,-1.62
2023-01-21T01:44:00.853Z,-1.58
2023-01-21T01:45:14.333Z,-1.58
2023-01-21T01:46:15.851Z,-1.54
2023-01-21T01:47:18.149Z,-1.55
2023-01-21T01:48:22.299Z,-1.63
2023-01-21T01:49:23.965Z,-1.59
2023-01-21T01:50:37.492Z,-1.60
2023-01-21T01:51:47.748Z,-1.55
2023-01-21T01:52:49.270Z,-1.54
2023-01-21T01:53:51.879Z,-1.59
2023-01-21T01:54:56.580Z,-1.58
2023-01-21T01:55:59.809Z,-1.53
2023-01-21T01:57:05.235Z,-1.50
2023-01-21T01:58:12.163Z,-1.48
2023-01-21T01:59:14.013Z,-1.55
2023-01-21T02:00:16.749Z,-1.66
2023-01-21T02:01:18.593Z,-1.64
2023-01-21T02:02:20.662Z,-1.63
2023-01-21T02:03:22.555Z,-1.62
2023-01-21T02:04:29.573Z,-1.61
2023-01-21T02:05:33.836Z,-1.57
2023-01-21T02:06:35.648Z,-1.60
2023-01-21T02:07:43.645Z,-1.55
2023-01-21T02:08:47.521Z,-1.57
2023-01-21T02:09:49.203Z,-1.55
2023-01-21T02:10:50.902Z,-1.53
2023-01-21T02:11:52.442Z,-1.48
2023-01-21T02:12:54.356Z,-1.51
2023-01-21T02:13:58.891Z,-1.49
2023-01-21T02:15:00.502Z,-1.50
2023-01-21T02:16:23.030Z,-1.57
2023-01-21T02:17:30.304Z,-1.61
2023-01-21T02:18:53.798Z,-1.63
2023-01-21T02:20:07.460Z,-1.57
2023-01-21T02:21:25.252Z,-1.50
2023-01-21T02:22:57.690Z,-1.50
2023-01-21T02:24:17.645Z,-1.61
2023-01-21T02:25:54.889Z,-1.72
2023-01-21T02:27:18.227Z,-1.62
2023-01-21T02:28:44.694Z,-1.58
2023-01-21T02:30:20.926Z,-1.62
2023-01-21T02:31:33.145Z,-1.55
2023-01-21T02:32:59.219Z,-1.60
2023-01-21T02:34:23.390Z,-1.59
2023-01-21T02:35:39.405Z,-1.54
2023-01-21T02:37:12.650Z,-1.58
2023-01-21T02:38:26.275Z,-1.64
2023-01-21T02:39:43.281Z,-1.60
2023-01-21T02:41:11.449Z,-1.64
2023-01-21T02:42:18.239Z,-1.64
2023-01-21T02:43:40.102Z,-1.64
2023-01-21T02:44:48.427Z,-1.58
2023-01-21T02:45:56.798Z,-1.61
2023-01-21T02:47:15.183Z,-1.58
2023-01-21T02:48:26.957Z,-1.60
2023-01-21T02:49:28.335Z,-1.60
2023-01-21T02:50:36.414Z,-1.57
2023-01-21T02:51:37.950Z,-1.57
2023-01-21T02:52:39.513Z,-1.58
2023-01-21T02:53:41.038Z,-1.68
2023-01-21T02:54:42.708Z,-1.64
2023-01-21T02:55:44.255Z,-1.61
2023-01-21T02:56:45.775Z,-1.63
2023-01-21T02:57:51.390Z,-1.60
2023-01-21T02:59:01.261Z,-1.59
2023-01-21T03:00:26.497Z,-1.59
2023-01-21T03:01:58.735Z,-1.59
2023-01-21T03:03:03.048Z,-1.59
2023-01-21T03:04:46.779Z,-1.60
2023-01-21T03:05:48.258Z,-1.63
2023-01-21T03:06:55.661Z,-1.62
2023-01-21T03:08:03.247Z,-1.60
2023-01-21T03:09:37.164Z,-1.59
2023-01-21T03:10:43.209Z,-1.63
2023-01-21T03:11:53.970Z,-1.72
2023-01-21T03:13:05.069Z,-1.70
2023-01-21T03:14:27.738Z,-1.64
2023-01-21T03:15:40.252Z,-1.62
2023-01-21T03:17:04.997Z,-1.61
2023-01-21T03:18:43.051Z,-1.66
2023-01-21T03:20:15.079Z,-1.61
2023-01-21T03:21:21.876Z,-1.60
2023-01-21T03:22:27.690Z,-1.64
2023-01-21T03:23:33.973Z,-1.66
2023-01-21T03:24:38.164Z,-1.65
2023-01-21T03:25:41.010Z,-1.59
2023-01-21T03:26:47.271Z,-1.58
2023-01-21T03:27:49.765Z,-1.49
2023-01-21T03:28:55.871Z,-1.52
2023-01-21T03:30:10.287Z,-1.55
2023-01-21T03:31:19.239Z,-1.61
2023-01-21T03:32:22.511Z,-1.62
2023-01-21T03:33:26.219Z,-1.61
2023-01-21T03:34:31.071Z,-1.58
2023-01-21T03:35:37.975Z,-1.52
2023-01-21T03:36:46.995Z,-1.64
2023-01-21T03:37:51.557Z,-1.60
2023-01-21T03:38:56.314Z,-1.64
2023-01-21T03:40:09.807Z,-1.64
2023-01-21T03:41:23.943Z,-1.68
2023-01-21T03:42:26.423Z,-1.64
2023-01-21T03:43:28.238Z,-1.66
2023-01-21T03:44:29.921Z,-1.67
2023-01-21T03:45:34.541Z,-1.67
2023-01-21T03:46:57.013Z,-1.70
2023-01-21T03:48:05.392Z,-1.76
2023-01-21T03:49:20.371Z,-1.72
2023-01-21T03:50:36.378Z,-1.77
2023-01-21T03:51:42.195Z,-1.75
2023-01-21T03:52:45.473Z,-1.69
2023-01-21T03:53:52.553Z,-1.68
2023-01-21T03:54:54.622Z,-1.70
2023-01-21T03:55:56.088Z,-1.73
2023-01-21T03:56:57.715Z,-1.74
2023-01-21T03:57:59.252Z,-1.75
2023-01-21T03:59:00.721Z,-1.73
2023-01-21T04:00:03.083Z,-1.69
2023-01-21T04:01:06.108Z,-1.72
2023-01-21T04:02:07.749Z,-1.74
2023-01-21T04:03:09.463Z,-1.70
2023-01-21T04:04:11.031Z,-1.69
2023-01-21T04:05:12.563Z,-1.73
2023-01-21T04:06:19.125Z,-1.72
2023-01-21T04:07:20.714Z,-1.73
2023-01-21T04:08:22.243Z,-1.70
2023-01-21T04:09:23.937Z,-1.74
2023-01-21T04:10:25.486Z,-1.68
2023-01-21T04:11:27.011Z,-1.62
2023-01-21T04:12:28.538Z,-1.69
2023-01-21T04:13:30.259Z,-1.66
2023-01-21T04:14:31.764Z,-1.73
2023-01-21T04:15:33.268Z,-1.68
2023-01-21T04:16:34.829Z,-1.66
2023-01-21T04:17:36.349Z,-1.67
2023-01-21T04:18:37.848Z,-1.67
2023-01-21T04:19:39.311Z,-1.68
2023-01-21T04:20:40.809Z,-1.72
2023-01-21T04:21:42.325Z,-1.67
2023-01-21T04:22:43.896Z,-1.66
2023-01-21T04:23:45.386Z,-1.66
2023-01-21T04:24:46.892Z,-1.71
2023-01-21T04:25:49.441Z,-1.65
2023-01-21T04:26:51.018Z,-1.63
2023-01-21T04:27:52.523Z,-1.63
2023-01-21T04:28:54.065Z,-1.68
2023-01-21T04:29:55.593Z,-1.67
2023-01-21T04:30:57.163Z,-1.68
2023-01-21T04:31:58.764Z,-1.66
2023-01-21T04:33:00.299Z,-1.69
2023-01-21T04:34:01.882Z,-1.70
2023-01-21T04:35:03.612Z,-1.65
2023-01-21T04:36:05.605Z,-1.64
2023-01-21T04:37:07.115Z,-1.66
2023-01-21T04:38:08.730Z,-1.74
2023-01-21T04:39:10.317Z,-1.65
2023-01-21T04:40:12.489Z,-1.62
2023-01-21T04:41:14.056Z,-1.66
2023-01-21T04:42:15.618Z,-1.68
2023-01-21T04:43:17.571Z,-1.68
2023-01-21T04:44:19.126Z,-1.64
2023-01-21T04:45:20.795Z,-1.67
2023-01-21T04:46:22.362Z,-1.80
2023-01-21T04:47:23.842Z,-1.77
2023-01-21T04:48:25.436Z,-1.77
2023-01-21T04:49:26.966Z,-1.71
2023-01-21T04:50:28.495Z,-1.79
2023-01-21T04:51:30.020Z,-1.78
2023-01-21T04:52:31.532Z,-1.80
2023-01-21T04:53:33.200Z,-1.79
2023-01-21T04:54:34.715Z,-1.89
2023-01-21T04:55:36.224Z,-1.89
2023-01-21T04:56:38.008Z,-1.89
2023-01-21T04:57:39.555Z,-1.89
2023-01-21T04:58:41.094Z,-1.89
2023-01-21T04:59:42.594Z,-1.90
2023-01-21T05:00:44.132Z,-1.85
2023-01-21T05:01:45.652Z,-1.85
2023-01-21T05:02:47.204Z,-1.78
2023-01-21T05:03:48.672Z,-1.81
2023-01-21T05:04:50.180Z,-1.81
2023-01-21T05:05:51.647Z,-1.85
2023-01-21T05:06:53.171Z,-1.89
2023-01-21T05:07:55.113Z,-1.91
2023-01-21T05:08:56.645Z,-1.95
2023-01-21T05:09:58.134Z,-1.91
2023-01-21T05:10:59.657Z,-1.84
2023-01-21T05:12:01.171Z,-1.80
2023-01-21T05:13:03.214Z,-1.82
2023-01-21T05:14:04.743Z,-1.86
2023-01-21T05:15:06.716Z,-1.80
2023-01-21T05:16:08.563Z,-1.78
2023-01-21T05:17:10.154Z,-1.78
2023-01-21T05:18:11.647Z,-1.78
2023-01-21T05:19:13.127Z,-1.77
2023-01-21T05:20:14.920Z,-1.86
2023-01-21T05:21:16.543Z,-1.84
2023-01-21T05:22:18.948Z,-1.83
2023-01-21T05:23:20.454Z,-1.78
2023-01-21T05:24:21.959Z,-1.86
2023-01-21T05:25:23.471Z,-1.89
2023-01-21T05:26:24.963Z,-1.85
2023-01-21T05:27:27.331Z,-1.89
2023-01-21T05:28:28.883Z,-1.87
2023-01-21T05:29:30.375Z,-1.88
2023-01-21T05:30:31.926Z,-1.83
2023-01-21T05:31:33.477Z,-1.81
2023-01-21T05:32:35.458Z,-1.80
2023-01-21T05:33:36.978Z,-1.90
2023-01-21T05:34:38.516Z,-1.95
2023-01-21T05:35:40.210Z,-1.88
2023-01-21T05:36:41.720Z,-1.83
2023-01-21T05:37:43.229Z,-1.85
2023-01-21T05:38:44.809Z,-1.93
2023-01-21T05:39:46.320Z,-1.99
2023-01-21T05:40:47.837Z,-1.99
2023-01-21T05:41:49.367Z,-1.98
2023-01-21T05:42:50.858Z,-2.02
2023-01-21T05:43:52.583Z,-1.94
2023-01-21T05:44:54.113Z,-1.95
2023-01-21T05:45:56.125Z,-1.94
2023-01-21T05:46:57.649Z,-1.94
2023-01-21T05:47:59.157Z,-1.96
2023-01-21T05:49:00.686Z,-1.93
2023-01-21T05:50:02.244Z,-1.89
2023-01-21T05:51:03.978Z,-1.90
2023-01-21T05:52:05.663Z,-1.94
2023-01-21T05:53:07.204Z,-2.01
2023-01-21T05:54:08.772Z,-2.03
2023-01-21T05:55:10.330Z,-2.00
2023-01-21T05:56:11.952Z,-1.96
2023-01-21T05:57:13.435Z,-1.92
2023-01-21T05:58:14.966Z,-1.94
2023-01-21T05:59:16.503Z,-1.91
2023-01-21T06:00:18.678Z,-1.92
2023-01-21T06:01:20.430Z,-1.92
2023-01-21T06:02:22.009Z,-1.87
2023-01-21T06:03:23.925Z,-1.86
2023-01-21T06:04:25.476Z,-1.87
2023-01-21T06:05:27.050Z,-2.00
2023-01-21T06:06:28.532Z,-1.98
2023-01-21T06:07:30.046Z,-1.98
2023-01-21T06:08:31.715Z,-1.99
2023-01-21T06:09:33.224Z,-1.94
2023-01-21T06:10:35.149Z,-1.91
2023-01-21T06:11:36.636Z,-1.89
2023-01-21T06:12:38.107Z,-1.93
2023-01-21T06:13:39.620Z,-1.88
2023-01-21T06:14:41.127Z,-1.87
2023-01-21T06:15:42.893Z,-1.82
2023-01-21T06:16:44.478Z,-1.79
2023-01-21T06:17:47.505Z,-1.80
2023-01-21T06:18:49.137Z,-1.80
2023-01-21T06:19:50.639Z,-1.75
2023-01-21T06:20:52.188Z,-1.82
2023-01-21T06:21:53.710Z,-1.81
2023-01-21T06:22:55.196Z,-1.86
2023-01-21T06:23:56.700Z,-1.79
2023-01-21T06:24:58.196Z,-1.81
2023-01-21T06:26:02.762Z,-1.82
2023-01-21T06:27:04.317Z,-1.82
2023-01-21T06:28:05.821Z,-1.81
2023-01-21T06:29:07.367Z,-1.81
2023-01-21T06:30:10.277Z,-1.87
2023-01-21T06:31:11.846Z,-1.92
2023-01-21T06:32:13.438Z,-1.95
2023-01-21T06:33:14.962Z,-2.01
2023-01-21T06:34:16.464Z,-1.98
2023-01-21T06:35:18.372Z,-2.00
2023-01-21T06:36:19.901Z,-2.03
2023-01-21T06:37:21.416Z,-2.01
2023-01-21T06:38:22.950Z,-2.04
2023-01-21T06:39:24.506Z,-1.95
2023-01-21T06:40:26.038Z,-1.94
2023-01-21T06:41:27.565Z,-1.96
2023-01-21T06:42:29.048Z,-2.00
2023-01-21T06:43:30.849Z,-1.94
2023-01-21T06:44:32.413Z,-2.01
2023-01-21T06:45:33.914Z,-2.04
2023-01-21T06:46:35.607Z,-2.02
2023-01-21T06:47:40.231Z,-2.01
2023-01-21T06:48:41.697Z,-2.04
2023-01-21T06:49:43.206Z,-2.04
2023-01-21T06:50:44.737Z,-1.96
2023-01-21T06:51:46.690Z,-1.94
2023-01-21T06:52:49.012Z,-1.94
2023-01-21T06:53:50.522Z,-1.89
2023-01-21T06:54:52.049Z,-1.86
2023-01-21T06:55:54.125Z,-1.88
2023-01-21T06:56:55.677Z,-1.90
2023-01-21T06:57:57.171Z,-1.88
2023-01-21T06:58:58.752Z,-1.87
2023-01-21T07:00:00.247Z,-1.86
2023-01-21T07:01:01.797Z,-1.85
2023-01-21T07:02:03.620Z,-1.81
2023-01-21T07:03:05.182Z,-1.89
2023-01-21T07:04:06.718Z,-1.87
2023-01-21T07:05:08.356Z,-1.89
2023-01-21T07:06:09.951Z,-1.85
2023-01-21T07:07:11.470Z,-1.83
2023-01-21T07:08:12.951Z,-1.79
2023-01-21T07:09:14.417Z,-1.85
2023-01-21T07:10:16.670Z,-1.89
2023-01-21T07:11:18.348Z,-1.82
2023-01-21T07:12:19.835Z,-1.83
2023-01-21T07:13:21.324Z,-1.77
2023-01-21T07:14:22.836Z,-1.78
2023-01-21T07:15:24.376Z,-1.77
2023-01-21T07:16:26.546Z,-1.75
2023-01-21T07:17:28.056Z,-1.70
2023-01-21T07:18:29.582Z,-1.70
2023-01-21T07:19:31.076Z,-1.67
2023-01-21T07:20:32.619Z,-1.65
2023-01-21T07:21:34.265Z,-1.66
2023-01-21T07:22:35.806Z,-1.66
2023-01-21T07:23:37.294Z,-1.60
2023-01-21T07:24:38.923Z,-1.55
2023-01-21T07:25:40.392Z,-1.52
2023-01-21T07:26:42.075Z,-1.50
2023-01-21T07:27:43.679Z,-1.47
2023-01-21T07:28:45.462Z,-1.47
2023-01-21T07:29:46.985Z,-1.48
2023-01-21T07:30:48.607Z,-1.40
2023-01-21T07:31:50.154Z,-1.41
2023-01-21T07:32:51.696Z,-1.36
2023-01-21T07:33:53.212Z,-1.40
2023-01-21T07:34:54.715Z,-1.34
2023-01-21T07:35:56.241Z,-1.37
2023-01-21T07:36:57.815Z,-1.42
2023-01-21T07:37:59.338Z,-1.40
2023-01-21T07:39:00.856Z,-1.41
2023-01-21T07:40:02.381Z,-1.37
2023-01-21T07:41:03.983Z,-1.30
2023-01-21T07:42:05.514Z,-1.24
2023-01-21T07:43:07.034Z,-1.23
2023-01-21T07:44:09.335Z,-1.28
2023-01-21T07:45:11.019Z,-1.20
2023-01-21T07:46:12.545Z,-1.20
2023-01-21T07:47:14.036Z,-1.19
2023-01-21T07:48:15.574Z,-1.17
2023-01-21T07:49:17.238Z,-1.16
2023-01-21T07:50:18.928Z,-1.13
2023-01-21T07:51:21.434Z,-1.08
2023-01-21T07:52:23.001Z,-1.05
2023-01-21T07:53:25.126Z,-1.04
2023-01-21T07:54:26.694Z,-1.00
2023-01-21T07:55:28.344Z,-1.04
2023-01-21T07:56:29.872Z,-1.02
2023-01-21T07:57:31.451Z,-0.97
2023-01-21T07:58:33.513Z,-0.95
2023-01-21T07:59:35.783Z,-0.93
2023-01-21T08:00:37.302Z,-0.87
2023-01-21T08:01:38.957Z,-0.96
2023-01-21T08:02:40.770Z,-0.93
2023-01-21T08:03:42.303Z,-0.92
2023-01-21T08:04:43.856Z,-0.93
2023-01-21T08:05:45.796Z,-0.93
2023-01-21T08:06:47.328Z,-0.89
2023-01-21T08:07:49.364Z,-0.82
2023-01-21T08:08:50.849Z,-0.80
2023-01-21T08:09:52.348Z,-0.78
2023-01-21T08:10:55.038Z,-0.86
2023-01-21T08:11:56.533Z,-0.80
2023-01-21T08:12:58.038Z,-0.74
2023-01-21T08:13:59.600Z,-0.69
2023-01-21T08:15:01.198Z,-0.63
2023-01-21T08:16:02.764Z,-0.73
2023-01-21T08:17:04.725Z,-0.73
2023-01-21T08:18:06.224Z,-0.62
2023-01-21T08:19:07.848Z,-0.61
2023-01-21T08:20:11.532Z,-0.65
2023-01-21T08:21:13.072Z,-0.70
2023-01-21T08:22:14.618Z,-0.77
2023-01-21T08:23:16.142Z,-0.71
2023-01-21T08:24:17.770Z,-0.72
2023-01-21T08:25:19.477Z,-0.65
2023-01-21T08:26:21.066Z,-0.63
2023-01-21T08:27:22.730Z,-0.54
2023-01-21T08:28:24.255Z,-0.64
2023-01-21T08:29:26.183Z,-0.53
2023-01-21T08:30:27.972Z,-0.47
2023-01-21T08:31:29.486Z,-0.43
2023-01-21T08:32:31.024Z,-0.45
2023-01-21T08:33:32.541Z,-0.40
2023-01-21T08:34:34.163Z,-0.35
2023-01-21T08:35:35.705Z,-0.44
2023-01-21T08:36:37.215Z,-0.41
2023-01-21T08:37:38.790Z,-0.44
2023-01-21T08:38:40.282Z,-0.45
2023-01-21T08:39:41.848Z,-0.48
2023-01-21T08:40:43.326Z,-0.45
2023-01-21T08:41:45.387Z,-0.40
2023-01-21T08:42:46.880Z,-0.39
2023-01-21T08:43:48.366Z,-0.40
2023-01-21T08:44:49.880Z,-0.39
2023-01-21T08:45:51.842Z,-0.38
2023-01-21T08:46:53.363Z,-0.40
2023-01-21T08:47:54.920Z,-0.32
2023-01-21T08:48:56.470Z,-0.31
2023-01-21T08:49:57.975Z,-0.21
2023-01-21T08:51:00.413Z,-0.25
2023-01-21T08:52:01.973Z,-0.31
2023-01-21T08:53:03.573Z,-0.32
2023-01-21T08:54:05.206Z,-0.25
2023-01-21T08:55:07.006Z,-0.23
2023-01-21T08:56:08.575Z,-0.29
2023-01-21T08:57:10.141Z,-0.27
2023-01-21T08:58:11.673Z,-0.29
2023-01-21T08:59:13.172Z,-0.28
2023-01-21T09:00:14.999Z,-0.21
2023-01-21T09:01:16.558Z,-0.16
2023-01-21T09:02:18.190Z,-0.12
2023-01-21T09:03:19.707Z,-0.13
2023-01-21T09:04:21.206Z,-0.17
2023-01-21T09:05:22.693Z,-0.16
2023-01-21T09:06:26.319Z,-0.12
2023-01-21T09:07:27.804Z,-0.16
2023-01-21T09:08:30.084Z,-0.09
2023-01-21T09:09:31.575Z,-0.13
2023-01-21T09:10:33.869Z,-0.09
2023-01-21T09:11:35.386Z,-0.06
2023-01-21T09:12:36.913Z,-0.09
2023-01-21T09:13:39.700Z,-0.04
2023-01-21T09:14:41.267Z,0.02
2023-01-21T09:15:44.388Z,0.08
2023-01-21T09:16:48.615Z,0.17
2023-01-21T09:17:50.168Z,0.17
2023-01-21T09:18:51.722Z,0.13
2023-01-21T09:19:55.374Z,0.22
2023-01-21T09:21:01.603Z,0.30
2023-01-21T09:22:03.145Z,0.36
2023-01-21T09:23:05.933Z,0.43
2023-01-21T09:24:07.749Z,0.41
2023-01-21T09:25:09.411Z,0.48
2023-01-21T09:26:17.915Z,0.48
2023-01-21T09:27:19.407Z,0.55
2023-01-21T09:28:22.426Z,0.56
2023-01-21T09:29:23.969Z,0.57
2023-01-21T09:30:25.495Z,0.62
2023-01-21T09:31:29.125Z,0.55
2023-01-21T09:32:30.746Z,0.59
2023-01-21T09:33:34.300Z,0.61
2023-01-21T09:34:36.013Z,0.59
2023-01-21T09:35:37.549Z,0.57
2023-01-21T09:36:39.247Z,0.49
2023-01-21T09:37:40.792Z,0.53
2023-01-21T09:38:46.713Z,0.52
2023-01-21T09:39:49.206Z,0.52
2023-01-21T09:40:51.923Z,0.56
2023-01-21T09:41:55.974Z,0.54
2023-01-21T09:43:02.731Z,0.58
2023-01-21T09:44:40.324Z,0.55
2023-01-21T09:45:44.709Z,0.62
2023-01-21T09:47:07.117Z,0.64
2023-01-21T09:48:14.198Z,0.62
2023-01-21T09:49:23.850Z,0.52
2023-01-21T09:50:25.401Z,0.58
2023-01-21T09:51:40.864Z,0.59
2023-01-21T09:52:45.025Z,0.59
2023-01-21T09:53:54.105Z,0.63
2023-01-21T09:54:57.197Z,0.70
2023-01-21T09:56:02.057Z,0.76
2023-01-21T09:57:26.362Z,0.83
2023-01-21T09:58:48.442Z,0.71
2023-01-21T10:00:08.650Z,0.64
2023-01-21T10:01:26.948Z,0.64
2023-01-21T10:02:43.293Z,0.66
2023-01-21T10:03:58.608Z,0.68
2023-01-21T10:05:19.602Z,0.66
2023-01-21T10:06:30.564Z,0.68
2023-01-21T10:07:42.879Z,0.62
2023-01-21T10:09:08.748Z,0.73
2023-01-21T10:10:27.607Z,0.79
2023-01-21T10:11:51.817Z,0.68
2023-01-21T10:13:13.196Z,0.79
2023-01-21T10:14:36.486Z,0.94
2023-01-21T10:15:45.138Z,0.93
2023-01-21T10:17:14.215Z,0.89
2023-01-21T10:18:20.167Z,0.88
2023-01-21T10:19:28.338Z,0.82
2023-01-21T10:20:31.815Z,0.88
2023-01-21T10:21:50.162Z,0.90
2023-01-21T10:23:14.665Z,0.98
2023-01-21T10:24:24.719Z,1.09
2023-01-21T10:25:35.885Z,1.03
2023-01-21T10:26:37.529Z,1.03
2023-01-21T10:27:42.582Z,1.15
2023-01-21T10:28:51.905Z,1.11
2023-01-21T10:29:58.990Z,1.15
2023-01-21T10:31:08.516Z,1.12
2023-01-21T10:32:16.664Z,1.09
2023-01-21T10:33:24.291Z,1.20
2023-01-21T10:34:30.361Z,1.21
2023-01-21T10:35:48.515Z,1.22
2023-01-21T10:37:23.621Z,1.26
2023-01-21T10:38:59.605Z,1.21
2023-01-21T10:40:20.827Z,1.09
2023-01-21T10:41:28.531Z,1.19
2023-01-21T10:42:51.236Z,1.14
2023-01-21T10:44:09.053Z,1.20
2023-01-21T10:45:29.004Z,1.14
2023-01-21T10:46:56.700Z,1.17
2023-01-21T10:48:22.972Z,1.17
2023-01-21T10:49:27.312Z,1.09
2023-01-21T10:50:50.230Z,1.08
2023-01-21T10:51:51.748Z,1.04
2023-01-21T10:52:59.295Z,1.08
2023-01-21T10:54:09.600Z,0.91
2023-01-21T10:55:22.870Z,0.93
2023-01-21T10:56:36.555Z,1.05
2023-01-21T10:58:02.178Z,1.14
2023-01-21T10:59:13.171Z,1.06
2023-01-21T11:00:32.002Z,1.12
2023-01-21T11:01:37.875Z,1.07
2023-01-21T11:02:39.723Z,1.04
2023-01-21T11:03:48.226Z,0.97
2023-01-21T11:04:51.011Z,1.04
2023-01-21T11:05:52.671Z,0.95
2023-01-21T11:07:00.535Z,1.02
2023-01-21T11:08:02.673Z,1.01
2023-01-21T11:09:08.120Z,0.96
2023-01-21T11:10:22.577Z,0.92
2023-01-21T11:11:33.303Z,1.01
2023-01-21T11:12:35.246Z,1.00
2023-01-21T11:13:37.281Z,0.96
2023-01-21T11:14:39.016Z,1.02
2023-01-21T11:15:46.752Z,0.99
2023-01-21T11:16:49.934Z,1.08
2023-01-21T11:17:52.986Z,1.12
2023-01-21T11:18:54.605Z,1.13
2023-01-21T11:20:02.319Z,1.10
2023-01-21T11:21:12.645Z,1.10
2023-01-21T11:22:17.318Z,1.18
2023-01-21T11:23:33.165Z,1.29
2023-01-21T11:24:46.083Z,1.23
2023-01-21T11:25:48.247Z,1.23
2023-01-21T11:26:55.188Z,1.29
2023-01-21T11:27:56.884Z,1.23
2023-01-21T11:29:07.867Z,1.08
2023-01-21T11:30:48.275Z,0.98
2023-01-21T11:32:04.990Z,1.06
2023-01-21T11:33:21.573Z,1.02
2023-01-21T11:34:23.622Z,0.97
2023-01-21T11:35:26.398Z,0.97
2023-01-21T11:36:27.965Z,0.96
2023-01-21T11:37:31.360Z,0.93
2023-01-21T11:38:34.818Z,0.88
2023-01-21T11:39:56.693Z,0.92
2023-01-21T11:41:04.576Z,0.88
2023-01-21T11:42:13.784Z,0.92
2023-01-21T11:43:42.799Z,1.09
2023-01-21T11:44:52.168Z,1.16
2023-01-21T11:45:55.430Z,1.08
2023-01-21T11:46:57.009Z,1.17
2023-01-21T11:48:00.225Z,1.22
2023-01-21T11:49:07.637Z,1.18
2023-01-21T11:50:31.544Z,1.12
2023-01-21T11:51:37.377Z,1.05
2023-01-21T11:52:39.272Z,1.12
2023-01-21T11:53:40.829Z,1.14
2023-01-21T11:54:42.872Z,1.15
2023-01-21T11:55:55.525Z,1.17
2023-01-21T11:57:02.435Z,1.20
2023-01-21T11:58:04.120Z,1.17
2023-01-21T11:59:30.623Z,1.17
2023-01-21T12:00:35.948Z,1.15
2023-01-21T12:01:37.596Z,0.98
2023-01-21T12:02:43.831Z,1.05
2023-01-21T12:03:52.793Z,1.07
2023-01-21T12:04:56.771Z,1.08
2023-01-21T12:05:59.641Z,1.24
2023-01-21T12:07:01.816Z,1.28
2023-01-21T12:08:05.542Z,1.33
2023-01-21T12:09:07.219Z,1.29
2023-01-21T12:10:11.765Z,1.30
2023-01-21T12:11:20.511Z,1.29
2023-01-21T12:12:36.798Z,1.32
2023-01-21T12:13:49.134Z,1.36
2023-01-21T12:15:12.841Z,1.31
2023-01-21T12:16:59.242Z,1.28
2023-01-21T12:18:06.795Z,1.24
2023-01-21T12:19:29.232Z,1.32
2023-01-21T12:20:51.900Z,1.35
2023-01-21T12:22:18.992Z,1.29
2023-01-21T12:23:55.744Z,1.24
2023-01-21T12:25:21.157Z,1.25
2023-01-21T12:26:44.900Z,1.30
2023-01-21T12:28:30.051Z,1.33
2023-01-21T12:29:40.216Z,1.29
2023-01-21T12:30:50.589Z,1.34
2023-01-21T12:31:59.899Z,1.31
2023-01-21T12:33:05.809Z,1.31
2023-01-21T12:34:24.401Z,1.26
2023-01-21T12:35:28.884Z,1.04
2023-01-21T12:36:40.379Z,1.09
2023-01-21T12:37:51.190Z,1.25
2023-01-21T12:39:20.850Z,1.32
2023-01-21T12:40:44.020Z,1.28
2023-01-21T12:41:52.522Z,1.20
2023-01-21T12:43:19.371Z,1.14
2023-01-21T12:44:30.311Z,1.14
2023-01-21T12:45:37.944Z,1.20
2023-01-21T12:46:44.395Z,1.23
2023-01-21T12:48:10.109Z,1.28
2023-01-21T12:49:22.435Z,1.32
2023-01-21T12:50:33.796Z,1.36
2023-01-21T12:51:43.709Z,1.36
2023-01-21T12:53:03.320Z,1.32
2023-01-21T12:54:16.552Z,1.39
2023-01-21T12:55:28.079Z,1.42
2023-01-21T12:56:48.223Z,1.50
2023-01-21T12:57:58.520Z,1.37
2023-01-21T12:59:10.487Z,1.30
2023-01-21T13:00:12.148Z,1.33
2023-01-21T13:01:30.303Z,1.28
2023-01-21T13:02:45.484Z,1.28
2023-01-21T13:04:04.730Z,1.18
2023-01-21T13:05:12.709Z,1.28
2023-01-21T13:06:19.125Z,1.37
2023-01-21T13:07:37.236Z,1.38
2023-01-21T13:08:51.023Z,1.30
2023-01-21T13:10:04.800Z,1.32
2023-01-21T13:11:11.458Z,1.29
2023-01-21T13:12:24.414Z,1.20
2023-01-21T13:13:32.019Z,1.18
2023-01-21T13:14:40.808Z,1.23
2023-01-21T13:15:44.855Z,1.21
2023-01-21T13:17:06.481Z,1.18
2023-01-21T13:18:41.513Z,1.21
2023-01-21T13:19:43.047Z,1.25
2023-01-21T13:20:53.913Z,1.23
2023-01-21T13:22:08.383Z,1.24
2023-01-21T13:23:15.593Z,1.25
2023-01-21T13:24:21.414Z,1.22
2023-01-21T13:25:47.196Z,1.30
2023-01-21T13:26:57.923Z,1.36
2023-01-21T13:28:24.766Z,1.18
2023-01-21T13:29:38.539Z,1.11
2023-01-21T13:30:57.527Z,1.13
2023-01-21T13:32:49.892Z,1.22
2023-01-21T13:34:06.853Z,1.23
2023-01-21T13:35:36.739Z,1.25
2023-01-21T13:37:01.220Z,1.21
2023-01-21T13:38:14.917Z,1.31
2023-01-21T13:39:28.540Z,1.23
2023-01-21T13:40:42.648Z,1.20
2023-01-21T13:42:03.023Z,1.24
2023-01-21T13:43:17.880Z,1.24
2023-01-21T13:44:38.047Z,1.28
2023-01-21T13:45:58.120Z,1.25
2023-01-21T13:47:08.614Z,1.23
2023-01-21T13:48:27.602Z,1.20
2023-01-21T13:49:50.407Z,1.06
2023-01-21T13:51:10.881Z,0.95
2023-01-21T13:52:34.111Z,1.06
2023-01-21T13:53:58.461Z,1.16
2023-01-21T13:55:18.311Z,1.18
2023-01-21T13:56:32.019Z,1.11
2023-01-21T13:58:12.910Z,1.14
2023-01-21T13:59:39.245Z,1.17
2023-01-21T14:00:53.006Z,1.20
2023-01-21T14:02:04.465Z,1.24
2023-01-21T14:03:51.816Z,1.29
2023-01-21T14:05:17.295Z,1.29
2023-01-21T14:06:37.567Z,1.29
2023-01-21T14:08:08.313Z,1.28
2023-01-21T14:09:16.403Z,1.31
2023-01-21T14:10:39.069Z,1.28
2023-01-21T14:11:51.096Z,1.33
2023-01-21T14:13:15.331Z,1.37
2023-01-21T14:14:46.081Z,1.43
2023-01-21T14:16:05.627Z,1.46
2023-01-21T14:17:38.016Z,1.35
2023-01-21T14:19:09.311Z,1.29
2023-01-21T14:20:32.247Z,1.32
2023-01-21T14:22:10.137Z,1.29
2023-01-21T14:23:28.737Z,1.31
2023-01-21T14:24:48.797Z,1.33
2023-01-21T14:26:04.901Z,1.24
2023-01-21T14:27:38.454Z,1.25
2023-01-21T14:28:58.461Z,1.29
2023-01-21T14:30:20.626Z,1.22
2023-01-21T14:31:24.701Z,1.25
2023-01-21T14:32:35.273Z,1.26